Time;durP1;ratioP1;P1;durP2;ratioP2;P2;SDS_P1;SDS_P2;PMS_P1;PMS_P2;Temp;Humidity;BMP_temperature;BMP_pressure;BME280_temperature;BME280_humidity;BME280_pressure;Samples;Min_cycle;Max_cycle;Signal;HPM_P1;HPM_P2
2021/07/13 00:02:32;;;;;;;161.52;92.05;;;;;;;;;;5093016;28;20400;-63
2021/07/13 00:05:18;;;;;;;177.18;95.70;;;;;;;;;;5092871;28;20044;-63
2021/07/13 00:08:04;;;;;;;151.55;88.30;;;;;;;;;;5089753;28;20048;-64
2021/07/13 00:10:49;;;;;;;160.90;93.57;;;;;;;;;;5091752;28;20044;-64
2021/07/13 00:13:34;;;;;;;156.35;89.68;;;;;;;;;;5089593;28;20063;-63
2021/07/13 00:16:20;;;;;;;166.02;93.22;;;;;;;;;;5052222;28;20099;-63
2021/07/13 00:19:05;;;;;;;161.32;93.88;;;;;;;;;;5088096;28;20095;-64
2021/07/13 00:21:51;;;;;;;146.80;86.93;;;;;;;;;;5092604;28;20506;-63
2021/07/13 00:24:37;;;;;;;193.43;96.55;;;;;;;;;;5089925;28;20405;-63
2021/07/13 00:27:22;;;;;;;187.25;99.00;;;;;;;;;;5092405;28;20490;-63
2021/07/13 00:30:09;;;;;;;223.75;105.63;;;;;;;;;;5088667;28;20048;-63
2021/07/13 00:32:54;;;;;;;205.02;106.10;;;;;;;;;;5064494;28;20055;-63
2021/07/13 00:35:39;;;;;;;193.45;102.50;;;;;;;;;;5091302;28;20048;-64
2021/07/13 00:38:25;;;;;;;230.50;105.93;;;;;;;;;;5052154;28;20053;-63
2021/07/13 00:41:10;;;;;;;261.88;111.82;;;;;;;;;;5073338;28;20040;-63
2021/07/13 00:43:55;;;;;;;198.70;102.47;;;;;;;;;;5089125;28;20044;-63
2021/07/13 00:46:47;;;;;;;169.50;94.72;;;;;;;;;;5092217;28;20054;-63
2021/07/13 00:49:32;;;;;;;145.95;89.32;;;;;;;;;;5087960;28;20048;-64
2021/07/13 00:52:19;;;;;;;228.32;103.05;;;;;;;;;;5092383;28;20054;-63
2021/07/13 00:55:04;;;;;;;255.85;110.75;;;;;;;;;;5089336;28;20040;-63
2021/07/13 00:57:49;;;;;;;249.20;109.22;;;;;;;;;;5073674;28;20056;-63
2021/07/13 01:00:39;;;;;;;216.40;107.72;;;;;;;;;;5079618;28;20047;-63
2021/07/13 01:03:25;;;;;;;223.95;107.10;;;;;;;;;;5071914;28;20479;-63
2021/07/13 01:06:10;;;;;;;283.60;116.65;;;;;;;;;;5069044;28;20086;-63
2021/07/13 01:08:57;;;;;;;292.63;117.75;;;;;;;;;;5075780;28;20194;-63
2021/07/13 01:11:47;;;;;;;293.05;117.57;;;;;;;;;;5091906;28;20055;-63
2021/07/13 01:14:37;;;;;;;285.70;117.95;;;;;;;;;;5076877;28;20059;-63
2021/07/13 01:17:32;;;;;;;324.95;121.80;;;;;;;;;;5074185;28;20047;-63
2021/07/13 01:20:20;;;;;;;352.42;120.43;;;;;;;;;;5091565;28;20450;-63
2021/07/13 01:23:19;;;;;;;360.60;125.72;;;;;;;;;;5096025;28;20040;-63
2021/07/13 01:26:22;;;;;;;399.30;126.00;;;;;;;;;;5079005;28;20059;-63
2021/07/13 01:29:10;;;;;;;306.20;119.57;;;;;;;;;;5070286;28;20056;-63
2021/07/13 01:31:55;;;;;;;227.82;110.03;;;;;;;;;;5074082;28;20056;-64
2021/07/13 01:34:45;;;;;;;205.30;106.18;;;;;;;;;;5075629;28;20041;-63
2021/07/13 01:37:30;;;;;;;224.82;105.53;;;;;;;;;;5088908;28;20054;-63
2021/07/13 01:40:16;;;;;;;207.10;102.05;;;;;;;;;;5095559;28;20052;-63
2021/07/13 01:43:02;;;;;;;206.50;99.55;;;;;;;;;;5080615;28;20051;-63
2021/07/13 01:45:46;;;;;;;216.60;101.95;;;;;;;;;;5095425;28;20101;-63
2021/07/13 01:48:32;;;;;;;207.57;99.57;;;;;;;;;;5095631;28;20051;-63
2021/07/13 01:51:17;;;;;;;232.50;106.78;;;;;;;;;;5080072;28;20040;-63
2021/07/13 01:54:05;;;;;;;253.73;106.68;;;;;;;;;;5093014;28;20059;-63
2021/07/13 01:56:51;;;;;;;292.52;112.03;;;;;;;;;;5078502;28;20044;-63
2021/07/13 01:59:37;;;;;;;272.70;105.07;;;;;;;;;;5092483;28;20486;-63
2021/07/13 02:02:22;;;;;;;404.73;121.25;;;;;;;;;;5075975;28;20429;-63
2021/07/13 02:05:08;;;;;;;458.30;126.22;;;;;;;;;;5076393;28;20133;-63
2021/07/13 02:07:53;;;;;;;404.77;116.63;;;;;;;;;;5077590;28;20044;-63
2021/07/13 02:10:39;;;;;;;340.13;117.78;;;;;;;;;;5079957;28;20418;-63
2021/07/13 02:13:24;;;;;;;506.00;129.38;;;;;;;;;;5074211;28;20221;-63
2021/07/13 02:16:10;;;;;;;277.75;108.13;;;;;;;;;;5079805;28;20044;-63
2021/07/13 02:18:55;;;;;;;415.85;119.57;;;;;;;;;;5091716;28;20444;-63
2021/07/13 02:21:41;;;;;;;273.50;100.90;;;;;;;;;;5094794;28;20117;-63
2021/07/13 02:24:27;;;;;;;353.15;114.10;;;;;;;;;;5091500;28;20417;-63
2021/07/13 02:27:13;;;;;;;428.08;121.85;;;;;;;;;;5074515;28;20533;-63
2021/07/13 02:30:00;;;;;;;282.42;98.63;;;;;;;;;;5059321;28;20056;-63
2021/07/13 02:32:48;;;;;;;368.90;111.70;;;;;;;;;;5076273;28;20440;-63
2021/07/13 02:35:40;;;;;;;224.85;93.60;;;;;;;;;;5087531;28;20051;-63
2021/07/13 02:38:27;;;;;;;240.63;96.78;;;;;;;;;;5079680;28;20044;-63
2021/07/13 02:41:12;;;;;;;219.15;92.50;;;;;;;;;;5072850;28;20044;-63
2021/07/13 02:43:57;;;;;;;207.20;88.05;;;;;;;;;;5073375;28;20560;-63
2021/07/13 02:46:45;;;;;;;249.80;96.97;;;;;;;;;;5091714;28;20470;-63
2021/07/13 02:49:31;;;;;;;212.90;92.50;;;;;;;;;;5079618;28;20044;-63
2021/07/13 02:52:18;;;;;;;205.95;95.20;;;;;;;;;;5094386;28;20047;-63
2021/07/13 02:55:06;;;;;;;212.85;94.63;;;;;;;;;;5093973;28;20720;-63
2021/07/13 02:57:52;;;;;;;209.90;91.93;;;;;;;;;;5079080;28;20162;-64
2021/07/13 03:00:37;;;;;;;184.70;84.95;;;;;;;;;;5078721;28;20055;-63
2021/07/13 03:03:23;;;;;;;206.82;95.82;;;;;;;;;;5077313;28;20674;-63
2021/07/13 03:06:08;;;;;;;175.40;86.13;;;;;;;;;;5078773;28;20520;-63
2021/07/13 03:08:54;;;;;;;174.80;87.00;;;;;;;;;;5094060;28;20166;-63
2021/07/13 03:11:40;;;;;;;152.02;82.55;;;;;;;;;;5093803;28;20044;-64
2021/07/13 03:14:25;;;;;;;148.70;79.55;;;;;;;;;;5092411;28;20076;-63
2021/07/13 03:17:11;;;;;;;166.82;83.05;;;;;;;;;;5078549;28;20441;-63
2021/07/13 03:19:56;;;;;;;148.73;81.13;;;;;;;;;;5075802;28;20107;-63
2021/07/13 03:22:43;;;;;;;155.52;83.03;;;;;;;;;;5088235;28;20046;-63
2021/07/13 03:25:37;;;;;;;150.32;79.93;;;;;;;;;;5075781;28;20040;-63
2021/07/13 03:28:23;;;;;;;151.10;81.88;;;;;;;;;;5075704;28;20502;-63
2021/07/13 03:31:09;;;;;;;134.05;77.50;;;;;;;;;;5090894;28;20123;-63
2021/07/13 03:33:55;;;;;;;125.40;75.72;;;;;;;;;;5093477;28;20501;-63
2021/07/13 03:36:41;;;;;;;132.27;77.35;;;;;;;;;;5093574;28;20048;-64
2021/07/13 03:39:26;;;;;;;122.22;74.28;;;;;;;;;;5093184;28;20052;-63
2021/07/13 03:42:12;;;;;;;144.52;79.15;;;;;;;;;;5091653;28;20472;-63
2021/07/13 03:44:57;;;;;;;145.90;83.93;;;;;;;;;;5093448;28;20047;-63
2021/07/13 03:47:47;;;;;;;146.48;82.53;;;;;;;;;;5078084;28;20048;-63
2021/07/13 03:50:33;;;;;;;148.52;83.00;;;;;;;;;;5093093;28;20036;-63
2021/07/13 03:53:18;;;;;;;122.70;73.20;;;;;;;;;;5091628;28;20051;-63
2021/07/13 03:56:03;;;;;;;144.18;82.65;;;;;;;;;;5136457;22;20638;-65
2021/07/13 03:58:51;;;;;;;161.95;89.40;;;;;;;;;;5133012;27;20053;-65
2021/07/13 04:01:37;;;;;;;149.43;82.85;;;;;;;;;;5133673;27;20538;-65
2021/07/13 04:04:22;;;;;;;131.95;80.13;;;;;;;;;;5133879;27;20120;-66
2021/07/13 04:07:07;;;;;;;126.63;81.15;;;;;;;;;;5114479;27;20047;-66
2021/07/13 04:09:53;;;;;;;138.13;82.72;;;;;;;;;;5112971;28;20054;-65
2021/07/13 04:12:38;;;;;;;148.90;84.32;;;;;;;;;;5113283;28;20062;-65
2021/07/13 04:15:23;;;;;;;138.85;83.85;;;;;;;;;;5112946;28;20052;-65
2021/07/13 04:18:09;;;;;;;138.13;81.22;;;;;;;;;;5111412;28;20489;-66
2021/07/13 04:20:54;;;;;;;134.40;83.35;;;;;;;;;;5112694;28;20071;-65
2021/07/13 04:23:40;;;;;;;137.90;80.20;;;;;;;;;;5113091;28;20435;-65
2021/07/13 04:26:25;;;;;;;127.88;77.32;;;;;;;;;;5113041;28;20039;-65
2021/07/13 04:29:10;;;;;;;136.85;81.10;;;;;;;;;;5108039;28;20043;-65
2021/07/13 04:31:56;;;;;;;125.50;76.22;;;;;;;;;;5112932;28;20043;-64
2021/07/13 04:34:42;;;;;;;132.50;78.57;;;;;;;;;;5112844;28;20546;-64
2021/07/13 04:37:28;;;;;;;126.13;75.57;;;;;;;;;;5112311;28;20413;-65
2021/07/13 04:40:13;;;;;;;120.90;72.38;;;;;;;;;;5072029;28;20041;-65
2021/07/13 04:42:58;;;;;;;116.10;70.63;;;;;;;;;;5072007;28;20050;-65
2021/07/13 04:45:44;;;;;;;104.03;67.55;;;;;;;;;;5072090;28;20052;-65
2021/07/13 04:48:29;;;;;;;96.10;63.63;;;;;;;;;;5082037;28;20045;-65
2021/07/13 04:51:15;;;;;;;99.35;65.25;;;;;;;;;;5112394;28;20042;-65
2021/07/13 04:54:00;;;;;;;101.85;64.00;;;;;;;;;;5108412;28;20048;-65
2021/07/13 04:56:45;;;;;;;103.18;64.25;;;;;;;;;;5111805;28;20056;-65
2021/07/13 04:59:30;;;;;;;87.18;57.17;;;;;;;;;;5110381;28;20045;-65
2021/07/13 05:02:18;;;;;;;99.05;60.55;;;;;;;;;;5112434;28;20051;-65
2021/07/13 05:05:03;;;;;;;89.50;59.25;;;;;;;;;;5091791;28;20059;-65
2021/07/13 05:07:49;;;;;;;89.40;59.50;;;;;;;;;;5091747;28;20448;-65
2021/07/13 05:10:35;;;;;;;87.13;58.70;;;;;;;;;;5091100;28;20052;-65
2021/07/13 05:13:20;;;;;;;74.28;54.25;;;;;;;;;;5091898;28;20055;-64
2021/07/13 05:16:06;;;;;;;82.97;57.55;;;;;;;;;;5091846;28;20040;-65
2021/07/13 05:18:51;;;;;;;89.03;59.15;;;;;;;;;;5091557;28;20559;-65
2021/07/13 05:21:40;;;;;;;84.80;57.25;;;;;;;;;;5071885;28;20051;-65
2021/07/13 05:24:25;;;;;;;69.95;51.70;;;;;;;;;;5071524;28;20056;-65
2021/07/13 05:27:12;;;;;;;67.53;49.72;;;;;;;;;;5071602;28;20127;-65
2021/07/13 05:29:57;;;;;;;64.25;49.15;;;;;;;;;;5081097;28;20154;-65
2021/07/13 05:32:42;;;;;;;59.58;46.03;;;;;;;;;;5112121;28;20048;-65
2021/07/13 05:35:28;;;;;;;63.83;47.83;;;;;;;;;;5111917;28;20530;-65
2021/07/13 05:38:13;;;;;;;64.82;48.10;;;;;;;;;;5111079;28;20059;-64
2021/07/13 05:40:58;;;;;;;62.30;47.78;;;;;;;;;;5109987;28;20054;-65
2021/07/13 05:43:43;;;;;;;63.33;47.95;;;;;;;;;;5112399;28;20065;-65
2021/07/13 05:46:29;;;;;;;68.97;49.03;;;;;;;;;;5111819;28;20073;-65
2021/07/13 05:49:14;;;;;;;65.47;49.25;;;;;;;;;;5112027;28;20517;-65
2021/07/13 05:52:00;;;;;;;61.53;47.03;;;;;;;;;;5110383;28;20558;-65
2021/07/13 05:54:45;;;;;;;70.60;50.83;;;;;;;;;;5111954;28;20240;-65
2021/07/13 05:57:30;;;;;;;66.25;48.67;;;;;;;;;;5111696;28;20124;-66
2021/07/13 06:00:16;;;;;;;65.95;47.70;;;;;;;;;;5106117;28;20143;-65
2021/07/13 06:03:02;;;;;;;69.50;49.97;;;;;;;;;;5111972;28;20085;-65
2021/07/13 06:05:47;;;;;;;64.90;48.47;;;;;;;;;;5111808;28;20046;-65
2021/07/13 06:08:33;;;;;;;64.60;46.78;;;;;;;;;;5113440;28;20051;-66
2021/07/13 06:11:18;;;;;;;63.58;47.78;;;;;;;;;;5104424;28;20198;-65
2021/07/13 06:14:04;;;;;;;69.85;50.08;;;;;;;;;;5095161;28;20093;-65
2021/07/13 06:16:49;;;;;;;56.88;45.30;;;;;;;;;;5094823;28;20044;-65
2021/07/13 06:19:34;;;;;;;54.20;43.60;;;;;;;;;;5094955;28;20044;-65
2021/07/13 06:22:20;;;;;;;59.22;47.55;;;;;;;;;;5108904;28;20055;-65
2021/07/13 06:25:06;;;;;;;58.97;43.13;;;;;;;;;;5115205;28;20417;-65
2021/07/13 06:27:51;;;;;;;63.08;45.72;;;;;;;;;;5115220;28;20047;-65
2021/07/13 06:30:36;;;;;;;60.65;45.00;;;;;;;;;;5115361;28;20045;-64
2021/07/13 06:33:21;;;;;;;54.67;43.38;;;;;;;;;;5114880;28;20035;-64
2021/07/13 06:36:08;;;;;;;55.80;40.67;;;;;;;;;;5113286;28;20226;-65
2021/07/13 06:38:53;;;;;;;51.75;40.75;;;;;;;;;;5114774;28;20036;-64
2021/07/13 06:41:39;;;;;;;55.70;42.40;;;;;;;;;;5112555;28;20046;-65
2021/07/13 06:44:24;;;;;;;52.47;41.40;;;;;;;;;;5114949;28;20066;-65
2021/07/13 06:47:09;;;;;;;58.13;43.78;;;;;;;;;;5103100;28;20413;-65
2021/07/13 06:49:55;;;;;;;57.83;40.88;;;;;;;;;;5107985;28;20040;-65
2021/07/13 06:52:40;;;;;;;46.70;39.22;;;;;;;;;;5102633;28;20042;-65
2021/07/13 06:55:26;;;;;;;49.85;39.38;;;;;;;;;;5114850;28;20105;-65
2021/07/13 06:58:11;;;;;;;45.30;35.30;;;;;;;;;;5099205;28;20170;-65
2021/07/13 07:00:56;;;;;;;40.28;33.85;;;;;;;;;;5104512;28;20043;-65
2021/07/13 07:03:42;;;;;;;41.90;34.42;;;;;;;;;;5110558;28;20128;-65
2021/07/13 07:06:29;;;;;;;38.42;33.10;;;;;;;;;;5114687;28;20511;-65
2021/07/13 07:09:14;;;;;;;37.92;33.83;;;;;;;;;;5112395;28;20413;-64
2021/07/13 07:12:00;;;;;;;39.10;32.08;;;;;;;;;;5074224;28;20055;-64
2021/07/13 07:14:45;;;;;;;35.75;31.40;;;;;;;;;;5078400;28;20050;-64
2021/07/13 07:17:30;;;;;;;34.28;30.52;;;;;;;;;;5109858;28;20044;-64
2021/07/13 07:20:16;;;;;;;35.83;31.23;;;;;;;;;;5108982;28;20883;-64
2021/07/13 07:23:01;;;;;;;35.33;31.63;;;;;;;;;;5113128;28;20050;-64
2021/07/13 07:25:47;;;;;;;34.42;30.63;;;;;;;;;;5110704;28;20048;-64
2021/07/13 07:28:32;;;;;;;34.22;30.40;;;;;;;;;;5073566;28;20414;-64
2021/07/13 07:31:19;;;;;;;32.25;28.85;;;;;;;;;;5090654;28;20110;-64
2021/07/13 07:34:05;;;;;;;35.67;31.75;;;;;;;;;;5113977;28;20046;-64
2021/07/13 07:36:51;;;;;;;33.33;29.45;;;;;;;;;;5110858;28;20044;-64
2021/07/13 07:39:37;;;;;;;30.58;27.00;;;;;;;;;;5113672;28;20568;-64
2021/07/13 07:42:23;;;;;;;28.83;25.95;;;;;;;;;;5105657;28;20058;-64
2021/07/13 07:45:08;;;;;;;31.77;27.58;;;;;;;;;;5073252;28;20052;-64
2021/07/13 07:47:53;;;;;;;29.90;26.70;;;;;;;;;;5079836;28;20050;-64
2021/07/13 07:50:39;;;;;;;30.50;27.40;;;;;;;;;;5113413;28;20039;-64
2021/07/13 07:53:24;;;;;;;34.35;30.60;;;;;;;;;;5097915;28;20059;-64
2021/07/13 07:56:10;;;;;;;34.15;30.55;;;;;;;;;;5090481;28;20566;-64
2021/07/13 07:58:55;;;;;;;33.40;29.83;;;;;;;;;;5092415;28;20070;-64
2021/07/13 08:01:40;;;;;;;33.80;29.92;;;;;;;;;;5091329;28;20060;-64
2021/07/13 08:04:26;;;;;;;29.85;26.65;;;;;;;;;;5100365;28;20128;-64
2021/07/13 08:07:11;;;;;;;29.52;26.52;;;;;;;;;;5113637;28;20503;-65
2021/07/13 08:09:57;;;;;;;29.55;26.55;;;;;;;;;;5112147;28;20110;-64
2021/07/13 08:12:42;;;;;;;30.17;27.23;;;;;;;;;;5107349;28;20059;-64
2021/07/13 08:15:27;;;;;;;28.60;25.77;;;;;;;;;;5101118;28;20035;-65
2021/07/13 08:18:13;;;;;;;29.80;27.00;;;;;;;;;;5106882;28;20455;-64
2021/07/13 08:20:59;;;;;;;30.65;27.35;;;;;;;;;;5113131;28;20170;-64
2021/07/13 08:23:44;;;;;;;29.35;26.60;;;;;;;;;;5111853;28;20039;-64
2021/07/13 08:26:29;;;;;;;30.40;27.40;;;;;;;;;;5109741;28;20054;-64
2021/07/13 08:29:15;;;;;;;29.15;26.25;;;;;;;;;;5113170;28;20125;-64
2021/07/13 08:32:00;;;;;;;31.20;27.75;;;;;;;;;;5112360;28;20050;-64
2021/07/13 08:34:46;;;;;;;29.00;26.05;;;;;;;;;;5092464;28;20043;-64
2021/07/13 08:37:35;;;;;;;29.85;26.83;;;;;;;;;;5110929;28;20053;-64
2021/07/13 08:40:21;;;;;;;29.98;26.88;;;;;;;;;;5112766;28;20486;-64
2021/07/13 08:43:06;;;;;;;31.67;28.27;;;;;;;;;;5088704;28;20047;-64
2021/07/13 08:45:55;;;;;;;28.48;25.60;;;;;;;;;;5105988;28;20050;-64
2021/07/13 08:48:40;;;;;;;30.70;27.58;;;;;;;;;;5109713;28;20050;-64
2021/07/13 08:51:26;;;;;;;29.48;26.48;;;;;;;;;;5107460;28;20053;-66
2021/07/13 08:54:12;;;;;;;29.00;26.00;;;;;;;;;;5112550;28;20044;-65
2021/07/13 08:56:57;;;;;;;25.63;22.88;;;;;;;;;;5112321;28;20036;-65
2021/07/13 08:59:44;;;;;;;27.27;24.50;;;;;;;;;;5112424;28;20413;-65
2021/07/13 09:02:29;;;;;;;26.42;23.73;;;;;;;;;;5111413;28;20047;-65
2021/07/13 09:05:21;;;;;;;27.95;25.15;;;;;;;;;;5111883;28;20390;-65
2021/07/13 09:08:13;;;;;;;27.23;24.45;;;;;;;;;;5112873;28;20071;-65
2021/07/13 09:11:02;;;;;;;28.70;25.88;;;;;;;;;;5110803;28;20185;-65
2021/07/13 09:13:54;;;;;;;30.08;26.70;;;;;;;;;;5112968;28;20513;-65
2021/07/13 09:16:39;;;;;;;27.88;25.00;;;;;;;;;;5112784;28;20066;-65
2021/07/13 09:19:24;;;;;;;29.10;26.30;;;;;;;;;;5112375;28;20044;-65
2021/07/13 09:22:10;;;;;;;31.38;26.95;;;;;;;;;;5108723;28;20051;-65
2021/07/13 09:24:56;;;;;;;31.27;27.42;;;;;;;;;;5112857;28;20096;-65
2021/07/13 09:27:41;;;;;;;30.45;27.17;;;;;;;;;;5111018;28;20123;-65
2021/07/13 09:30:30;;;;;;;30.40;27.27;;;;;;;;;;5090949;28;20043;-65
2021/07/13 09:33:16;;;;;;;30.85;27.63;;;;;;;;;;5090934;28;20734;-65
2021/07/13 09:36:08;;;;;;;29.80;26.65;;;;;;;;;;5088801;28;20098;-65
2021/07/13 09:38:55;;;;;;;31.90;28.63;;;;;;;;;;5091273;28;20040;-65
2021/07/13 09:41:43;;;;;;;29.95;26.75;;;;;;;;;;5086154;28;20166;-65
2021/07/13 09:44:28;;;;;;;29.00;26.05;;;;;;;;;;5112400;28;20508;-65
2021/07/13 09:47:27;;;;;;;29.20;26.27;;;;;;;;;;5095469;28;20097;-65
2021/07/13 09:50:13;;;;;;;29.13;26.30;;;;;;;;;;5094149;28;20067;-65
2021/07/13 09:53:01;;;;;;;28.30;25.70;;;;;;;;;;5097382;28;20042;-65
2021/07/13 09:55:47;;;;;;;27.25;24.52;;;;;;;;;;5155628;22;20066;-66
2021/07/13 09:58:32;;;;;;;28.80;25.90;;;;;;;;;;5079540;28;20047;-63
2021/07/13 10:01:17;;;;;;;30.10;26.40;;;;;;;;;;5094955;28;20083;-63
2021/07/13 10:04:03;;;;;;;30.55;27.65;;;;;;;;;;5078619;28;20051;-63
2021/07/13 10:06:48;;;;;;;31.00;28.00;;;;;;;;;;5085003;28;20040;-64
2021/07/13 10:09:34;;;;;;;30.25;27.17;;;;;;;;;;5059578;28;20587;-64
2021/07/13 10:12:22;;;;;;;31.02;28.08;;;;;;;;;;5045721;28;20098;-64
2021/07/13 10:15:07;;;;;;;30.75;27.95;;;;;;;;;;5072656;28;20047;-63
2021/07/13 10:17:53;;;;;;;31.65;28.42;;;;;;;;;;5074731;28;20114;-63
2021/07/13 10:20:39;;;;;;;30.90;27.80;;;;;;;;;;5074624;28;20076;-65
2021/07/13 10:23:24;;;;;;;31.98;28.92;;;;;;;;;;5074435;28;20046;-64
2021/07/13 10:26:11;;;;;;;32.70;29.55;;;;;;;;;;5059601;28;20405;-63
2021/07/13 10:28:56;;;;;;;31.52;28.40;;;;;;;;;;5071076;28;20049;-63
2021/07/13 10:31:41;;;;;;;32.70;29.52;;;;;;;;;;5064998;28;20178;-64
2021/07/13 10:34:53;;;;;;;33.17;29.88;;;;;;;;;;5035574;28;20266;-63
2021/07/13 10:37:41;;;;;;;33.20;30.10;;;;;;;;;;5066948;28;20041;-64
2021/07/13 10:40:27;;;;;;;34.58;31.08;;;;;;;;;;5054072;28;20049;-63
2021/07/13 10:43:27;;;;;;;34.00;30.65;;;;;;;;;;5054247;28;20167;-63
2021/07/13 10:46:12;;;;;;;36.28;32.60;;;;;;;;;;5068934;28;20074;-63
2021/07/13 10:49:17;;;;;;;34.97;31.48;;;;;;;;;;5074227;28;20049;-64
2021/07/13 10:52:02;;;;;;;36.60;32.92;;;;;;;;;;5074159;28;20117;-63
2021/07/13 10:54:48;;;;;;;35.95;32.58;;;;;;;;;;5057416;28;20612;-64
2021/07/13 10:57:34;;;;;;;35.38;31.65;;;;;;;;;;5064992;28;20147;-63
2021/07/13 11:00:19;;;;;;;37.28;33.58;;;;;;;;;;5049800;28;20512;-64
2021/07/13 11:03:04;;;;;;;36.13;32.33;;;;;;;;;;5059007;28;20048;-64
2021/07/13 11:05:49;;;;;;;38.35;34.40;;;;;;;;;;5072153;28;20048;-63
2021/07/13 11:08:41;;;;;;;32.42;29.30;;;;;;;;;;5059126;28;20051;-63
2021/07/13 11:11:29;;;;;;;33.78;30.52;;;;;;;;;;5073781;28;20045;-64
2021/07/13 11:14:15;;;;;;;33.50;29.95;;;;;;;;;;5073998;28;20040;-63
2021/07/13 11:17:00;;;;;;;31.08;28.08;;;;;;;;;;5072870;28;20453;-63
2021/07/13 11:19:46;;;;;;;30.50;27.52;;;;;;;;;;5073364;28;20799;-63
2021/07/13 11:22:31;;;;;;;29.88;26.73;;;;;;;;;;5073716;28;20060;-63
2021/07/13 11:25:24;;;;;;;29.83;26.83;;;;;;;;;;5073802;28;20045;-65
2021/07/13 11:28:09;;;;;;;;;;;;;;;;;;5072833;28;20070;-65
2021/07/13 11:30:55;;;;;;;28.38;25.58;;;;;;;;;;5073304;28;20399;-65
2021/07/13 11:33:40;;;;;;;27.15;24.35;;;;;;;;;;5058488;28;20074;-65
2021/07/13 11:36:28;;;;;;;30.15;26.95;;;;;;;;;;5072871;28;20062;-65
2021/07/13 11:39:24;;;;;;;30.20;27.13;;;;;;;;;;5073178;28;20510;-65
2021/07/13 11:42:10;;;;;;;28.63;25.88;;;;;;;;;;5073373;28;20045;-65
2021/07/13 11:45:01;;;;;;;31.23;28.13;;;;;;;;;;5057358;28;20407;-65
2021/07/13 11:47:46;;;;;;;29.60;26.60;;;;;;;;;;5072939;28;20055;-65
2021/07/13 11:50:32;;;;;;;30.33;27.30;;;;;;;;;;5072947;28;20063;-65
2021/07/13 11:53:21;;;;;;;27.70;24.95;;;;;;;;;;5073078;28;20063;-65
2021/07/13 11:56:06;;;;;;;30.13;27.25;;;;;;;;;;5071903;28;20048;-65
2021/07/13 11:58:52;;;;;;;27.40;24.90;;;;;;;;;;5072819;28;20525;-65
2021/07/13 12:01:37;;;;;;;26.25;23.83;;;;;;;;;;5072613;28;20170;-65
2021/07/13 12:04:23;;;;;;;26.60;24.17;;;;;;;;;;5072787;28;20044;-65
2021/07/13 12:07:09;;;;;;;29.42;26.60;;;;;;;;;;5070211;28;20041;-64
2021/07/13 12:10:01;;;;;;;25.98;23.35;;;;;;;;;;5072561;28;20059;-65
2021/07/13 12:12:46;;;;;;;24.55;22.30;;;;;;;;;;5057670;28;20071;-65
2021/07/13 12:15:31;;;;;;;24.95;22.35;;;;;;;;;;5071532;28;20524;-65
2021/07/13 12:18:17;;;;;;;28.02;25.40;;;;;;;;;;5072549;28;20478;-65
2021/07/13 12:21:02;;;;;;;26.10;23.40;;;;;;;;;;5057282;28;20143;-65
2021/07/13 12:23:48;;;;;;;26.55;23.67;;;;;;;;;;5057554;28;20045;-65
2021/07/13 12:26:34;;;;;;;24.63;22.33;;;;;;;;;;5071475;28;20041;-66
2021/07/13 12:29:20;;;;;;;25.52;22.83;;;;;;;;;;5072284;28;20056;-65
2021/07/13 12:32:06;;;;;;;24.52;22.08;;;;;;;;;;5072211;28;20510;-65
2021/07/13 12:34:52;;;;;;;26.10;23.33;;;;;;;;;;5072195;28;20076;-65
2021/07/13 12:37:37;;;;;;;25.02;22.48;;;;;;;;;;5071287;28;20118;-65
2021/07/13 12:42:51;;;;;;;25.15;22.48;;;;;;;;;;5130500;27;20444;-64
2021/07/13 12:45:37;;;;;;;24.48;21.92;;;;;;;;;;5130271;28;20039;-64
2021/07/13 12:48:32;;;;;;;22.90;20.60;;;;;;;;;;5114265;27;20559;-64
2021/07/13 12:51:29;;;;;;;26.58;23.67;;;;;;;;;;5109709;28;20101;-64
2021/07/13 12:54:14;;;;;;;24.20;20.98;;;;;;;;;;5109779;28;20490;-64
2021/07/13 12:56:59;;;;;;;24.20;21.50;;;;;;;;;;5109311;28;20046;-64
2021/07/13 13:00:03;;;;;;;27.55;24.55;;;;;;;;;;5109845;28;20040;-64
2021/07/13 13:03:02;;;;;;;26.95;23.83;;;;;;;;;;5130041;27;20065;-64
2021/07/13 13:05:47;;;;;;;25.23;20.95;;;;;;;;;;5130036;27;20043;-64
2021/07/13 13:08:33;;;;;;;22.48;19.88;;;;;;;;;;5128723;27;20121;-64
2021/07/13 13:11:18;;;;;;;27.58;21.98;;;;;;;;;;5129574;27;20397;-64
2021/07/13 13:14:06;;;;;;;22.35;18.70;;;;;;;;;;5123235;27;20066;-65
2021/07/13 13:16:51;;;;;;;24.35;20.63;;;;;;;;;;5117462;27;20046;-64
2021/07/13 13:19:36;;;;;;;26.27;22.10;;;;;;;;;;5136070;27;20032;-64
2021/07/13 13:22:23;;;;;;;22.88;20.45;;;;;;;;;;5139579;27;20054;-65
2021/07/13 13:25:08;;;;;;;26.02;21.90;;;;;;;;;;5135062;27;20046;-65
2021/07/13 13:27:53;;;;;;;23.70;20.42;;;;;;;;;;5133332;27;20059;-64
2021/07/13 13:30:39;;;;;;;23.85;21.23;;;;;;;;;;5138539;27;20425;-64
2021/07/13 13:33:24;;;;;;;26.05;22.38;;;;;;;;;;5142983;27;20049;-65
2021/07/13 13:42:03;;;;;;;26.60;23.77;;;;;;;;;;5132659;27;20164;-64
2021/07/13 13:44:48;;;;;;;25.42;22.80;;;;;;;;;;5138058;27;20080;-64
2021/07/13 13:47:34;;;;;;;24.58;22.08;;;;;;;;;;5135727;27;20035;-64
2021/07/13 13:50:20;;;;;;;24.75;22.17;;;;;;;;;;5134733;27;20043;-65
2021/07/13 13:53:05;;;;;;;26.08;23.38;;;;;;;;;;5141298;27;20039;-64
2021/07/13 13:55:50;;;;;;;27.25;24.25;;;;;;;;;;5135944;27;20075;-65
2021/07/13 13:58:35;;;;;;;25.55;22.88;;;;;;;;;;5118064;27;20046;-65
2021/07/13 14:01:22;;;;;;;25.75;22.73;;;;;;;;;;5094646;28;20079;-65
2021/07/13 14:04:07;;;;;;;26.88;23.48;;;;;;;;;;5107498;27;20041;-64
2021/07/13 14:06:52;;;;;;;25.02;21.42;;;;;;;;;;5135607;27;20047;-64
2021/07/13 14:09:40;;;;;;;26.30;23.60;;;;;;;;;;5096644;27;20097;-65
2021/07/13 14:12:25;;;;;;;25.83;23.13;;;;;;;;;;5094606;28;20048;-64
2021/07/13 14:15:11;;;;;;;24.90;21.98;;;;;;;;;;5092105;28;20036;-64
2021/07/13 14:17:57;;;;;;;25.23;22.63;;;;;;;;;;5091953;28;20137;-64
2021/07/13 14:20:42;;;;;;;24.83;22.30;;;;;;;;;;5111368;28;20132;-65
2021/07/13 14:23:27;;;;;;;24.10;21.20;;;;;;;;;;5113050;28;20093;-64
2021/07/13 14:26:12;;;;;;;22.35;19.73;;;;;;;;;;5112711;27;20100;-65
2021/07/13 14:28:57;;;;;;;20.40;18.40;;;;;;;;;;5110585;28;20122;-64
2021/07/13 14:31:43;;;;;;;21.15;19.05;;;;;;;;;;5112073;27;20116;-65
2021/07/13 14:34:28;;;;;;;19.73;17.85;;;;;;;;;;5112814;28;20071;-64
2021/07/13 14:37:13;;;;;;;19.77;17.77;;;;;;;;;;5112575;27;20409;-64
2021/07/13 14:39:58;;;;;;;20.88;18.77;;;;;;;;;;5110403;28;20170;-63
2021/07/13 14:42:44;;;;;;;20.60;18.50;;;;;;;;;;5090241;28;20106;-64
2021/07/13 14:45:29;;;;;;;18.77;16.92;;;;;;;;;;5091772;28;20504;-64
2021/07/13 14:48:15;;;;;;;19.75;17.85;;;;;;;;;;5092306;28;20063;-64
2021/07/13 14:51:00;;;;;;;19.42;17.38;;;;;;;;;;5090783;28;20051;-64
2021/07/13 14:53:45;;;;;;;18.90;16.88;;;;;;;;;;5091426;28;20043;-64
2021/07/13 14:56:31;;;;;;;18.92;17.00;;;;;;;;;;5086977;28;20051;-64
2021/07/13 14:59:16;;;;;;;20.33;16.85;;;;;;;;;;5091336;28;20569;-64
2021/07/13 15:02:01;;;;;;;17.33;15.52;;;;;;;;;;5095503;28;20052;-64
2021/07/13 15:04:46;;;;;;;20.88;18.40;;;;;;;;;;5090387;28;20044;-64
2021/07/13 15:07:32;;;;;;;23.92;18.25;;;;;;;;;;5091461;28;20178;-64
2021/07/13 15:10:17;;;;;;;21.65;19.38;;;;;;;;;;5096682;28;20131;-64
2021/07/13 15:13:02;;;;;;;21.15;18.88;;;;;;;;;;5112012;27;20053;-64
2021/07/13 15:15:48;;;;;;;27.05;19.90;;;;;;;;;;5110728;28;20401;-64
2021/07/13 15:18:33;;;;;;;22.67;20.33;;;;;;;;;;5111415;28;20137;-64
2021/07/13 15:21:18;;;;;;;24.95;19.25;;;;;;;;;;5099213;28;20184;-63
2021/07/13 15:24:04;;;;;;;22.23;20.10;;;;;;;;;;5091504;28;20494;-64
2021/07/13 15:26:50;;;;;;;28.02;21.25;;;;;;;;;;5090288;28;20413;-63
2021/07/13 15:29:35;;;;;;;21.83;19.00;;;;;;;;;;5090125;28;20537;-64
2021/07/13 15:32:20;;;;;;;22.33;19.63;;;;;;;;;;5090511;28;20056;-63
2021/07/13 15:35:06;;;;;;;25.40;20.50;;;;;;;;;;5091162;28;20051;-63
2021/07/13 15:37:51;;;;;;;24.88;20.40;;;;;;;;;;5090514;28;20086;-64
2021/07/13 15:40:37;;;;;;;22.58;20.10;;;;;;;;;;5091021;28;20051;-64
2021/07/13 15:43:23;;;;;;;24.83;21.55;;;;;;;;;;5112615;27;20059;-64
2021/07/13 15:46:09;;;;;;;24.17;20.75;;;;;;;;;;5113245;28;20054;-64
2021/07/13 15:48:55;;;;;;;22.70;20.00;;;;;;;;;;5113184;28;20059;-64
2021/07/13 15:51:40;;;;;;;23.33;20.20;;;;;;;;;;5111444;28;20516;-64
2021/07/13 15:54:26;;;;;;;22.15;19.38;;;;;;;;;;5113111;28;20051;-64
2021/07/13 15:57:11;;;;;;;23.70;20.08;;;;;;;;;;5112928;28;20101;-64
2021/07/13 15:59:56;;;;;;;23.88;21.10;;;;;;;;;;5112403;28;20508;-64
2021/07/13 16:02:46;;;;;;;22.48;20.05;;;;;;;;;;5110712;28;20390;-63
2021/07/13 16:05:31;;;;;;;23.60;21.00;;;;;;;;;;5112623;28;20073;-64
2021/07/13 16:08:16;;;;;;;24.25;21.65;;;;;;;;;;5112735;28;20050;-64
2021/07/13 16:11:02;;;;;;;25.75;22.10;;;;;;;;;;5112398;28;20502;-64